Oakfield, Maine
Current Conditions -  °F | °C
As of 7:53 AM on Tuesday 21 Oct 2014 (Local Time) from KHUL Reporting Station
Overcast Overcast  
Wind Chill: 30°   Ceiling: 8000
Heat Index: 30°   Visibility: 9mi
Dew Point: 27°   Wind: 0mph
Humidity: 88%   Direction: NA
Pressure: 30.08"   Gusts: NA
Location:  46.1°N, 68.15°W
Report Text: KHUL 211153Z AUTO 00000KT 9SM FEW060 OVC080 M01/M03 A3008 RMK AO2 SLP193 I6000 T10111028 11011 21044 53020
Loading
Personal Weather Stations






























Interactive Weather Map
Tropical Storm Tracking
New forecast layout! Learn more

10-Day Weather Forecast

Advertisements
Track Severe Weather on mobile